createdAt,value
2023-04-01T00:02:13.867Z,16.67
2023-04-01T00:04:42.593Z,15.92
2023-04-01T00:07:10.969Z,16.83
2023-04-01T00:09:38.833Z,17.91
2023-04-01T00:12:06.843Z,17.57
2023-04-01T00:14:35.873Z,16.41
2023-04-01T00:17:04.598Z,15.97
2023-04-01T00:19:33.650Z,17.09
2023-04-01T00:22:01.665Z,17.89
2023-04-01T00:24:29.776Z,17.00
2023-04-01T00:26:57.733Z,15.95
2023-04-01T00:29:30.217Z,16.22
2023-04-01T00:31:59.073Z,17.45
2023-04-01T00:34:27.368Z,17.84
2023-04-01T00:36:55.337Z,16.73
2023-04-01T00:39:23.409Z,15.76
2023-04-01T00:41:51.301Z,16.22
2023-04-01T00:44:30.056Z,17.46
2023-04-01T00:46:58.169Z,17.79
2023-04-01T00:49:35.361Z,16.62
2023-04-01T00:52:05.717Z,15.85
2023-04-01T00:54:34.994Z,16.67
2023-04-01T00:57:11.335Z,17.67
2023-04-01T00:59:46.016Z,17.06
2023-04-01T01:02:15.925Z,15.93
2023-04-01T01:04:44.059Z,15.82
2023-04-01T01:07:20.932Z,16.96
2023-04-01T01:10:10.573Z,17.83
2023-04-01T01:13:01.720Z,16.81
2023-04-01T01:15:38.521Z,15.73
2023-04-01T01:18:31.060Z,16.48
2023-04-01T01:21:44.724Z,17.79
2023-04-01T01:24:41.137Z,17.12
2023-04-01T01:27:14.909Z,15.84
2023-04-01T01:29:48.240Z,16.01
2023-04-01T01:32:46.239Z,17.32
2023-04-01T01:35:46.013Z,17.58
2023-04-01T01:38:18.256Z,16.20
2023-04-01T01:40:54.721Z,15.83
2023-04-01T01:43:31.898Z,17.07
2023-04-01T01:46:04.378Z,17.66
2023-04-01T01:48:34.528Z,16.61
2023-04-01T01:51:02.787Z,15.66
2023-04-01T01:53:30.820Z,16.28
2023-04-01T01:55:58.681Z,17.52
2023-04-01T01:58:32.877Z,17.82
2023-04-01T02:01:05.746Z,16.67
2023-04-01T02:03:38.005Z,15.79
2023-04-01T02:06:09.370Z,16.59
2023-04-01T02:08:58.746Z,17.78
2023-04-01T02:11:35.452Z,17.56
2023-04-01T02:14:27.958Z,16.32
2023-04-01T02:17:02.347Z,16.00
2023-04-01T02:19:58.234Z,17.27
2023-04-01T02:22:33.487Z,17.72
2023-04-01T02:25:22.098Z,16.55
2023-04-01T02:27:50.056Z,15.68
2023-04-01T02:30:18.508Z,16.60
2023-04-01T02:32:47.421Z,17.78
2023-04-01T02:35:18.165Z,17.55
2023-04-01T02:37:49.626Z,16.37
2023-04-01T02:40:18.666Z,15.81
2023-04-01T02:42:46.964Z,16.88
2023-04-01T02:45:15.818Z,17.85
2023-04-01T02:47:43.909Z,17.19
2023-04-01T02:50:12.101Z,16.07
2023-04-01T02:52:39.976Z,15.82
2023-04-01T02:55:08.378Z,17.03
2023-04-01T02:57:36.482Z,17.90
2023-04-01T03:00:05.248Z,17.07
2023-04-01T03:02:33.225Z,15.99
2023-04-01T03:05:01.176Z,16.00
2023-04-01T03:07:29.389Z,17.27
2023-04-01T03:09:57.196Z,17.78
2023-04-01T03:12:25.369Z,16.72
2023-04-01T03:14:53.308Z,15.70
2023-04-01T03:17:21.276Z,16.03
2023-04-01T03:19:49.280Z,17.30
2023-04-01T03:22:17.241Z,17.76
2023-04-01T03:24:45.243Z,16.69
2023-04-01T03:27:13.089Z,15.73
2023-04-01T03:29:41.273Z,16.35
2023-04-01T03:32:09.138Z,17.56
2023-04-01T03:34:38.452Z,17.29
2023-04-01T03:37:07.025Z,16.14
2023-04-01T03:39:36.000Z,15.69
2023-04-01T03:42:04.114Z,16.82
2023-04-01T03:44:39.321Z,17.70
2023-04-01T03:47:07.219Z,16.88
2023-04-01T03:49:35.434Z,15.77
2023-04-01T03:52:03.547Z,15.84
2023-04-01T03:54:31.471Z,17.12
2023-04-01T03:56:59.578Z,17.52
2023-04-01T03:59:27.625Z,16.42
2023-04-01T04:01:55.606Z,15.70
2023-04-01T04:04:23.506Z,16.66
2023-04-01T04:06:52.272Z,17.65
2023-04-01T04:09:20.126Z,17.01
2023-04-01T04:11:47.989Z,15.87
2023-04-01T04:14:15.961Z,15.62
2023-04-01T04:16:44.056Z,16.88
2023-04-01T04:19:13.325Z,17.80
2023-04-01T04:21:43.009Z,17.00
2023-04-01T04:24:11.246Z,15.84
2023-04-01T04:26:39.126Z,15.97
2023-04-01T04:29:07.085Z,17.19
2023-04-01T04:31:35.044Z,17.60
2023-04-01T04:34:03.080Z,16.50
2023-04-01T04:36:31.011Z,15.55
2023-04-01T04:39:02.840Z,16.18
2023-04-01T04:41:30.854Z,17.40
2023-04-01T04:43:59.606Z,17.74
2023-04-01T04:46:27.642Z,16.61
2023-04-01T04:48:55.713Z,15.72
2023-04-01T04:51:23.965Z,16.45
2023-04-01T04:53:52.984Z,17.57
2023-04-01T04:56:23.968Z,17.09
2023-04-01T04:58:52.008Z,15.95
2023-04-01T05:01:20.381Z,15.69
2023-04-01T05:03:48.581Z,16.89
2023-04-01T05:06:18.078Z,17.75
2023-04-01T05:08:47.130Z,16.94
2023-04-01T05:11:18.800Z,15.83
2023-04-01T05:13:47.411Z,15.87
2023-04-01T05:16:19.620Z,17.13
2023-04-01T05:18:48.604Z,17.73
2023-04-01T05:21:17.161Z,16.69
2023-04-01T05:23:45.447Z,15.79
2023-04-01T05:26:15.510Z,16.54
2023-04-01T05:28:43.392Z,17.69
2023-04-01T05:31:11.934Z,17.36
2023-04-01T05:33:40.408Z,16.20
2023-04-01T05:36:15.446Z,15.92
2023-04-01T05:38:44.756Z,17.16
2023-04-01T05:41:12.622Z,18.05
2023-04-01T05:43:41.340Z,17.29
2023-04-01T05:46:09.462Z,16.20
2023-04-01T05:48:38.330Z,16.00
2023-04-01T05:51:06.387Z,17.25
2023-04-01T05:53:34.322Z,17.85
2023-04-01T05:56:05.981Z,16.87
2023-04-01T05:58:33.855Z,15.93
2023-04-01T06:01:11.538Z,16.31
2023-04-01T06:03:43.850Z,17.71
2023-04-01T06:06:19.852Z,17.74
2023-04-01T06:08:47.718Z,16.61
2023-04-01T06:11:34.177Z,15.92
2023-04-01T06:14:36.060Z,17.01
2023-04-01T06:17:16.479Z,17.61
2023-04-01T06:20:33.052Z,16.50
2023-04-01T06:23:28.335Z,15.66
2023-04-01T06:26:19.556Z,16.93
2023-04-01T06:29:27.304Z,17.54
2023-04-01T06:32:30.503Z,16.24
2023-04-01T06:35:13.802Z,16.03
2023-04-01T06:37:54.202Z,17.44
2023-04-01T06:40:59.094Z,17.77
2023-04-01T06:44:00.778Z,16.39
2023-04-01T06:46:49.590Z,15.46
2023-04-01T06:49:23.564Z,16.49
2023-04-01T06:52:34.298Z,17.82
2023-04-01T06:55:27.911Z,17.47
2023-04-01T06:58:01.882Z,16.20
2023-04-01T07:00:40.414Z,15.89
2023-04-01T07:03:34.173Z,17.24
2023-04-01T07:06:10.026Z,17.84
2023-04-01T07:08:41.179Z,16.76
2023-04-01T07:11:28.248Z,15.85
2023-04-01T07:14:19.669Z,16.41
2023-04-01T07:17:07.505Z,17.86
2023-04-01T07:20:00.365Z,17.41
2023-04-01T07:22:33.730Z,16.20
2023-04-01T07:25:13.573Z,16.24
2023-04-01T07:27:43.389Z,17.63
2023-04-01T07:30:20.604Z,18.05
2023-04-01T07:33:00.603Z,16.91
2023-04-01T07:35:39.219Z,15.97
2023-04-01T07:38:10.008Z,16.62
2023-04-01T07:41:23.854Z,17.90
2023-04-01T07:44:01.292Z,17.46
2023-04-01T07:46:47.237Z,16.37
2023-04-01T07:49:46.548Z,16.42
2023-04-01T07:52:38.493Z,17.98
2023-04-01T07:55:25.619Z,18.01
2023-04-01T07:58:16.311Z,16.78
2023-04-01T08:01:05.183Z,16.47
2023-04-01T08:03:53.287Z,17.87
2023-04-01T08:06:48.737Z,18.32
2023-04-01T08:09:34.568Z,17.03
2023-04-01T08:12:28.298Z,16.23
2023-04-01T08:15:01.824Z,17.35
2023-04-01T08:18:09.675Z,18.49
2023-04-01T08:20:54.726Z,17.65
2023-04-01T08:23:48.786Z,16.50
2023-04-01T08:26:41.431Z,16.44
2023-04-01T08:29:36.686Z,17.95
2023-04-01T08:32:11.660Z,18.88
2023-04-01T08:34:42.786Z,17.86
2023-04-01T08:37:20.708Z,16.80
2023-04-01T08:39:59.989Z,16.70
2023-04-01T08:42:51.758Z,18.06
2023-04-01T08:45:54.068Z,18.41
2023-04-01T08:48:40.486Z,17.17
2023-04-01T08:51:49.635Z,16.88
2023-04-01T08:54:45.112Z,18.45
2023-04-01T08:57:37.068Z,18.81
2023-04-01T09:00:13.684Z,17.57
2023-04-01T09:03:05.380Z,16.72
2023-04-01T09:05:58.021Z,17.07
2023-04-01T09:08:46.809Z,18.53
2023-04-01T09:12:11.659Z,18.61
2023-04-01T09:14:58.886Z,17.23
2023-04-01T09:17:40.198Z,16.44
2023-04-01T09:20:51.310Z,16.95
2023-04-01T09:23:49.186Z,18.59
2023-04-01T09:26:59.832Z,18.55
2023-04-01T09:29:42.201Z,17.18
2023-04-01T09:32:18.910Z,16.87
2023-04-01T09:35:12.419Z,18.08
2023-04-01T09:38:01.288Z,18.67
2023-04-01T09:40:50.485Z,17.51
2023-04-01T09:43:49.081Z,16.58
2023-04-01T09:46:27.114Z,16.68
2023-04-01T09:49:44.506Z,18.11
2023-04-01T09:52:33.634Z,18.42
2023-04-01T09:55:42.634Z,17.18
2023-04-01T09:58:46.527Z,16.18
2023-04-01T10:02:12.121Z,16.48
2023-04-01T10:05:41.940Z,18.35
2023-04-01T10:08:53.179Z,18.08
2023-04-01T10:12:00.821Z,16.77
2023-04-01T10:14:43.556Z,16.83
2023-04-01T10:17:26.360Z,18.30
2023-04-01T10:20:37.456Z,18.71
2023-04-01T10:23:14.187Z,17.32
2023-04-01T10:26:22.325Z,16.42
2023-04-01T10:29:24.959Z,16.61
2023-04-01T10:32:13.891Z,18.25
2023-04-01T10:34:57.825Z,18.13
2023-04-01T10:38:01.192Z,16.98
2023-04-01T10:41:10.819Z,16.08
2023-04-01T10:44:33.566Z,16.37
2023-04-01T10:47:16.527Z,18.07
2023-04-01T10:50:08.670Z,18.17
2023-04-01T10:52:57.416Z,16.96
2023-04-01T10:55:46.464Z,16.10
2023-04-01T10:58:40.285Z,16.14
2023-04-01T11:01:37.711Z,17.56
2023-04-01T11:04:37.995Z,17.94
2023-04-01T11:08:18.020Z,16.73
2023-04-01T11:11:19.636Z,15.64
2023-04-01T11:14:59.724Z,16.37
2023-04-01T11:17:49.232Z,18.11
2023-04-01T11:21:03.019Z,18.04
2023-04-01T11:24:03.910Z,16.57
2023-04-01T11:26:54.549Z,15.59
2023-04-01T11:30:00.625Z,15.68
2023-04-01T11:32:50.522Z,17.28
2023-04-01T11:35:37.881Z,17.65
2023-04-01T11:38:34.489Z,16.50
2023-04-01T11:41:33.084Z,15.58
2023-04-01T11:44:19.064Z,15.80
2023-04-01T11:47:05.150Z,17.40
2023-04-01T11:50:09.958Z,17.97
2023-04-01T11:53:20.375Z,16.77
2023-04-01T11:56:08.582Z,15.78
2023-04-01T11:58:51.582Z,16.13
2023-04-01T12:01:22.572Z,17.59
2023-04-01T12:04:27.905Z,17.98
2023-04-01T12:07:13.773Z,16.66
2023-04-01T12:10:06.554Z,15.74
2023-04-01T12:13:06.100Z,15.75
2023-04-01T12:15:58.285Z,17.34
2023-04-01T12:18:40.070Z,17.62
2023-04-01T12:21:38.815Z,16.44
2023-04-01T12:24:48.029Z,15.44
2023-04-01T12:27:36.883Z,15.68
2023-04-01T12:30:47.144Z,17.20
2023-04-01T12:33:42.681Z,17.00
2023-04-01T12:36:20.565Z,15.79
2023-04-01T12:39:21.399Z,15.20
2023-04-01T12:42:18.251Z,16.48
2023-04-01T12:45:15.010Z,17.15
2023-04-01T12:48:12.870Z,16.00
2023-04-01T12:51:08.577Z,15.08
2023-04-01T12:54:19.732Z,15.18
2023-04-01T12:57:07.322Z,16.97
2023-04-01T12:59:45.036Z,16.90
2023-04-01T13:02:39.232Z,15.86
2023-04-01T13:05:24.546Z,15.03
2023-04-01T13:08:06.697Z,15.18
2023-04-01T13:11:37.826Z,16.74
2023-04-01T13:14:11.979Z,17.07
2023-04-01T13:17:34.876Z,15.88
2023-04-01T13:20:36.749Z,14.92
2023-04-01T13:23:34.110Z,15.62
2023-04-01T13:26:14.808Z,17.04
2023-04-01T13:28:49.026Z,16.49
2023-04-01T13:31:44.258Z,15.42
2023-04-01T13:34:57.734Z,14.81
2023-04-01T13:37:50.260Z,16.28
2023-04-01T13:40:46.773Z,16.83
2023-04-01T13:43:34.753Z,15.60
2023-04-01T13:46:02.750Z,14.95
2023-04-01T13:49:04.010Z,15.92
2023-04-01T13:51:50.621Z,17.19
2023-04-01T13:55:14.101Z,16.44
2023-04-01T13:58:36.291Z,15.11
2023-04-01T14:01:27.308Z,15.19
2023-04-01T14:04:21.176Z,16.64
2023-04-01T14:07:37.935Z,16.02
2023-04-01T14:10:26.027Z,14.85
2023-04-01T14:13:38.195Z,14.85
2023-04-01T14:17:09.049Z,16.55
2023-04-01T14:20:32.739Z,15.90
2023-04-01T14:23:21.478Z,14.78
2023-04-01T14:25:58.221Z,14.71
2023-04-01T14:28:56.458Z,16.16
2023-04-01T14:31:43.221Z,16.55
2023-04-01T14:34:35.734Z,15.50
2023-04-01T14:37:50.975Z,14.63
2023-04-01T14:40:35.145Z,14.61
2023-04-01T14:43:12.210Z,16.13
2023-04-01T14:46:07.958Z,16.44
2023-04-01T14:48:58.729Z,15.33
2023-04-01T14:51:31.283Z,14.49
2023-04-01T14:54:05.071Z,14.04
2023-04-01T14:56:42.981Z,15.02
2023-04-01T14:59:28.956Z,16.36
2023-04-01T15:02:15.819Z,15.76
2023-04-01T15:05:08.407Z,14.72
2023-04-01T15:07:52.249Z,13.98
2023-04-01T15:10:32.812Z,14.05
2023-04-01T15:13:31.399Z,15.58
2023-04-01T15:16:38.709Z,15.81
2023-04-01T15:19:37.537Z,14.61
2023-04-01T15:22:52.873Z,13.80
2023-04-01T15:25:51.024Z,13.71
2023-04-01T15:28:46.047Z,15.33
2023-04-01T15:31:50.153Z,15.79
2023-04-01T15:34:59.058Z,14.56
2023-04-01T15:37:55.314Z,13.63
2023-04-01T15:40:52.412Z,13.76
2023-04-01T15:43:33.262Z,15.42
2023-04-01T15:46:04.199Z,15.51
2023-04-01T15:48:56.726Z,14.52
2023-04-01T15:51:42.966Z,13.66
2023-04-01T15:54:26.106Z,13.65
2023-04-01T15:57:10.235Z,15.16
2023-04-01T15:59:48.467Z,15.76
2023-04-01T16:02:50.320Z,14.73
2023-04-01T16:05:45.109Z,13.74
2023-04-01T16:08:44.118Z,13.65
2023-04-01T16:11:56.605Z,15.34
2023-04-01T16:14:49.065Z,15.71
2023-04-01T16:17:50.422Z,14.51
2023-04-01T16:20:54.969Z,13.61
2023-04-01T16:23:52.811Z,13.79
2023-04-01T16:26:45.616Z,15.48
2023-04-01T16:29:16.485Z,15.48
2023-04-01T16:31:47.237Z,14.44
2023-04-01T16:34:32.137Z,13.65
2023-04-01T16:37:21.532Z,13.22
2023-04-01T16:40:10.624Z,14.54
2023-04-01T16:43:07.286Z,15.84
2023-04-01T16:45:44.441Z,15.23
2023-04-01T16:48:21.197Z,14.18
2023-04-01T16:51:04.069Z,13.40
2023-04-01T16:53:49.501Z,13.31
2023-04-01T16:56:43.617Z,14.81
2023-04-01T16:59:11.798Z,15.41
2023-04-01T17:01:56.069Z,14.43
2023-04-01T17:05:16.765Z,13.53
2023-04-01T17:07:57.853Z,13.67
2023-04-01T17:10:59.570Z,15.10
2023-04-01T17:13:32.576Z,14.80
2023-04-01T17:16:37.117Z,13.83
2023-04-01T17:19:42.932Z,13.01
2023-04-01T17:22:27.329Z,13.22
2023-04-01T17:25:22.842Z,14.83
2023-04-01T17:28:22.805Z,15.13
2023-04-01T17:31:05.586Z,13.91
2023-04-01T17:33:39.455Z,13.10
2023-04-01T17:36:27.593Z,12.54
2023-04-01T17:39:17.301Z,12.76
2023-04-01T17:42:26.462Z,14.43
2023-04-01T17:45:32.185Z,14.82
2023-04-01T17:48:39.567Z,13.53
2023-04-01T17:51:45.857Z,12.61
2023-04-01T17:54:38.182Z,12.34
2023-04-01T17:57:28.928Z,13.87
2023-04-01T18:00:08.162Z,13.79
2023-04-01T18:03:20.311Z,12.83
2023-04-01T18:06:37.237Z,12.06
2023-04-01T18:09:48.214Z,12.38
2023-04-01T18:13:20.939Z,13.93
2023-04-01T18:16:26.103Z,13.04
2023-04-01T18:19:58.427Z,12.12
2023-04-01T18:22:57.766Z,11.77
2023-04-01T18:25:41.939Z,13.41
2023-04-01T18:29:07.774Z,13.98
2023-04-01T18:31:45.470Z,12.71
2023-04-01T18:34:20.738Z,11.94
2023-04-01T18:37:13.771Z,11.44
2023-04-01T18:39:43.082Z,12.35
2023-04-01T18:42:35.542Z,13.61
2023-04-01T18:45:53.262Z,13.13
2023-04-01T18:48:58.111Z,11.96
2023-04-01T18:51:47.347Z,11.41
2023-04-01T18:54:41.758Z,12.73
2023-04-01T18:57:18.097Z,13.01
2023-04-01T19:00:06.749Z,12.03
2023-04-01T19:02:56.447Z,11.27
2023-04-01T19:05:37.231Z,11.51
2023-04-01T19:08:33.710Z,13.07
2023-04-01T19:11:13.480Z,13.23
2023-04-01T19:14:00.073Z,12.19
2023-04-01T19:16:44.920Z,11.39
2023-04-01T19:19:52.859Z,10.86
2023-04-01T19:22:57.443Z,11.23
2023-04-01T19:25:52.436Z,12.88
2023-04-01T19:28:49.799Z,13.22
2023-04-01T19:32:11.535Z,12.04
2023-04-01T19:34:51.023Z,11.07
2023-04-01T19:37:46.533Z,10.58
2023-04-01T19:40:55.091Z,11.52
2023-04-01T19:43:52.249Z,12.83
2023-04-01T19:46:33.255Z,11.91
2023-04-01T19:49:26.322Z,11.01
2023-04-01T19:52:27.898Z,10.49
2023-04-01T19:55:54.238Z,11.74
2023-04-01T19:58:29.239Z,12.34
2023-04-01T20:01:03.847Z,11.46
2023-04-01T20:04:05.825Z,10.72
2023-04-01T20:06:42.899Z,10.81
2023-04-01T20:09:35.037Z,12.17
2023-04-01T20:12:50.678Z,12.62
2023-04-01T20:15:42.181Z,11.38
2023-04-01T20:18:41.342Z,10.57
2023-04-01T20:21:41.272Z,10.93
2023-04-01T20:24:16.168Z,12.54
2023-04-01T20:26:54.786Z,12.57
2023-04-01T20:29:46.913Z,11.53
2023-04-01T20:32:51.395Z,10.65
2023-04-01T20:35:28.303Z,10.90
2023-04-01T20:38:06.164Z,12.42
2023-04-01T20:41:49.816Z,12.82
2023-04-01T20:44:52.584Z,11.28
2023-04-01T20:48:00.290Z,10.44
2023-04-01T20:50:58.361Z,10.84
2023-04-01T20:53:56.033Z,12.45
2023-04-01T20:56:46.085Z,12.29
2023-04-01T20:59:58.025Z,11.16
2023-04-01T21:02:54.220Z,11.03
2023-04-01T21:05:52.993Z,12.46
2023-04-01T21:08:41.569Z,11.98
2023-04-01T21:11:24.677Z,10.97
2023-04-01T21:14:07.823Z,10.82
2023-04-01T21:17:20.266Z,12.23
2023-04-01T21:20:23.652Z,12.54
2023-04-01T21:23:02.566Z,11.26
2023-04-01T21:25:42.417Z,10.46
2023-04-01T21:28:29.184Z,10.45
2023-04-01T21:31:18.262Z,11.95
2023-04-01T21:34:16.888Z,12.46
2023-04-01T21:37:25.884Z,11.19
2023-04-01T21:40:16.951Z,10.22
2023-04-01T21:43:00.502Z,11.15
2023-04-01T21:46:01.459Z,12.10
2023-04-01T21:49:14.877Z,11.05
2023-04-01T21:52:38.044Z,10.14
2023-04-01T21:55:36.907Z,11.38
2023-04-01T21:58:48.859Z,12.31
2023-04-01T22:02:25.080Z,11.06
2023-04-01T22:05:22.373Z,9.94
2023-04-01T22:08:27.485Z,10.62
2023-04-01T22:11:35.466Z,12.04
2023-04-01T22:14:08.978Z,11.42
2023-04-01T22:16:55.152Z,10.44
2023-04-01T22:19:38.052Z,10.24
2023-04-01T22:22:10.058Z,11.59
2023-04-01T22:24:59.492Z,12.56
2023-04-01T22:27:41.998Z,12.23
2023-04-01T22:30:21.292Z,11.03
2023-04-01T22:32:54.148Z,10.18
2023-04-01T22:35:37.391Z,10.08
2023-04-01T22:38:35.424Z,11.37
2023-04-01T22:41:19.878Z,12.04
2023-04-01T22:43:48.735Z,10.95
2023-04-01T22:46:50.172Z,10.05
2023-04-01T22:49:43.957Z,10.17
2023-04-01T22:52:35.966Z,11.73
2023-04-01T22:55:14.932Z,11.92
2023-04-01T22:58:00.982Z,10.73
2023-04-01T23:00:42.104Z,9.82
2023-04-01T23:03:19.116Z,9.60
2023-04-01T23:05:59.683Z,10.87
2023-04-01T23:09:10.486Z,11.45
2023-04-01T23:12:08.548Z,10.27
2023-04-01T23:14:38.500Z,9.34
2023-04-01T23:17:42.150Z,9.22
2023-04-01T23:20:27.888Z,10.85
2023-04-01T23:23:17.348Z,11.11
2023-04-01T23:26:09.567Z,10.01
2023-04-01T23:28:51.527Z,9.17
2023-04-01T23:31:30.543Z,9.21
2023-04-01T23:34:12.685Z,10.62
2023-04-01T23:36:48.380Z,11.25
2023-04-01T23:39:25.199Z,10.26
2023-04-01T23:41:57.235Z,9.32
2023-04-01T23:44:26.953Z,8.83
2023-04-01T23:46:55.681Z,9.83
2023-04-01T23:49:31.815Z,10.89
2023-04-01T23:52:04.479Z,10.21
2023-04-01T23:54:45.966Z,9.34
2023-04-01T23:57:21.808Z,8.64
